• Join FlightAware (Why Join?)
  • Login
  • US Flag 
02:01AM EDT


 

Airport Tracker/Info


-or-


 

Live Flight TrackerFlight Track Log ✈ FLG4081 ✈ 23-Apr-2013 ✈ KDTW - KAZO

Flight Track Log - Related Links

Times and Time Zones

All times are in EDT time to prevent confusion due to time zone crossing. See the FLG4081 flight status page for this flight to view local times or setup timezone preferences in your user account.

Time Position Orientation Groundspeed Altitude Reporting Facility
EDT Latitude Longitude Course Direction KTS MPH feet Rate Location/Type
10:06PM 42.2058 -83.3556 275° West 150 173 1,400  Level Cleveland Center
10:07PM 42.2050 -83.3842 268° West 170 196 2,600 1,500 Climbing FAA TRACON SMA TRACON (SMA)
10:07PM 42.2067 -83.4106 275° West 219 252 2,800 1,020 Climbing FAA TRACON SMA TRACON (SMA)
10:08PM 42.2089 -83.4386 276° West 249 287 3,300 1,800 Climbing FAA TRACON SMA TRACON (SMA)
10:08PM 42.2114 -83.4678 277° West 255 293 4,000 2,820 Climbing FAA TRACON SMA TRACON (SMA)
10:08PM 42.2142 -83.4975 277° West 258 297 5,200 4,200 Climbing FAA TRACON SMA TRACON (SMA)
10:09PM 42.2167 -83.5333 275° West 250 288 6,900 4,200 Climbing FAA TRACON SMA TRACON (SMA)
10:09PM 42.2186 -83.5611 275° West 246 283 8,000 3,060 Climbing FAA TRACON SMA TRACON (SMA)
10:09PM 42.2206 -83.5889 275° West 245 282 8,900 2,820 Climbing FAA TRACON SMA TRACON (SMA)
10:10PM 42.2231 -83.7303 275° West  Level FlightAware Approximate
10:10PM 42.2233 -83.6258 276° West 252 290 9,900  Level FAA TRACON SMA TRACON (SMA)
10:10PM 42.2256 -83.6583 275° West 286 329 10,000 240 Climbing FAA TRACON SMA TRACON (SMA)
10:10PM 42.2286 -83.7036 275° West 316 364 10,100 120 Climbing FAA TRACON SMA TRACON (SMA)
10:11PM 42.2294 -83.8258 275° West  Level FlightAware Approximate
10:11PM 42.2314 -83.7417 276° West 329 379 10,100  Level FAA TRACON SMA TRACON (SMA)
10:11PM 42.2344 -83.7794 276° West 329 379 10,000  Descending FAA TRACON SMA TRACON (SMA)
10:11PM 42.2381 -83.8275 276° West 332 382 10,100 120 Climbing FAA TRACON SMA TRACON (SMA)
10:12PM 42.2355 -83.9214 275° West  Level FlightAware Approximate
10:12PM 42.2408 -83.8650 276° West 330 380 10,100  Level FAA TRACON SMA TRACON (SMA)
10:12PM 42.2433 -83.9025 275° West 327 376 10,100 -180 Level FAA TRACON SMA TRACON (SMA)
10:12PM 42.2458 -83.9397 275° West 326 375 10,000 -180 Descending FAA TRACON SMA TRACON (SMA)
10:13PM 42.2494 -83.9867 276° West 327 376 10,000 120 Level FAA TRACON SMA TRACON (SMA)
10:13PM 42.2522 -84.0239 276° West 326 375 10,100 120 Climbing FAA TRACON SMA TRACON (SMA)
10:13PM 42.2547 -84.0608 275° West 324 373 10,100  Level FAA TRACON SMA TRACON (SMA)
10:14PM 42.2578 -84.1072 275° West 324 373 10,100  Level FAA TRACON SMA TRACON (SMA)
10:14PM 42.2606 -84.1444 276° West 323 372 10,100  Level FAA TRACON SMA TRACON (SMA)
10:14PM 42.2636 -84.1908 275° West 324 373 10,100  Level FAA TRACON SMA TRACON (SMA)
10:15PM 42.2633 -84.2281 269° West 324 373 10,100  Level FAA TRACON SMA TRACON (SMA)
10:15PM 42.2628 -84.2653 269° West 323 372 10,100  Level FAA TRACON SMA TRACON (SMA)
10:15PM 42.2614 -84.3114 268° West 321 369 10,100  Level FAA TRACON SMA TRACON (SMA)
10:16PM 42.2614 -84.3483 270° West 322 371 10,100  Level FAA TRACON SMA TRACON (SMA)
10:16PM 42.2611 -84.3856 269° West 322 371 10,100  Level FAA TRACON SMA TRACON (SMA)
10:16PM 42.2603 -84.4322 269° West 323 372 10,100  Level FAA TRACON SMA TRACON (SMA)
10:17PM 42.2592 -84.4694 268° West 324 373 10,100  Level FAA TRACON SMA TRACON (SMA)
10:17PM 42.2583 -84.5072 268° West 325 374 10,100  Level FAA TRACON SMA TRACON (SMA)
10:17PM 42.2583 -84.5447 270° West 325 374 10,100  Level FAA TRACON SMA TRACON (SMA)
10:18PM 42.2583 -84.5447 334° Northwest 325 374 10,100  Level FAA TRACON SMA TRACON (SMA)
10:18PM 42.2583 -84.5447 334° Northwest 325 374 10,100 -120 Level FAA TRACON SMA TRACON (SMA)
10:19PM 42.2492 -84.6944 265° West 324 373 10,000 -60 Descending Chicago Center
10:20PM 42.2242 -84.8075 253° West 270 311 10,000 -180 Level Chicago Center
10:21PM 42.2078 -84.8967 256° West 252 290 9,700 -900 Descending Chicago Center
10:22PM 42.1917 -84.9794 255° West 245 282 8,200 -1,320 Descending Chicago Center
10:23PM 42.1700 -85.0661 251° West 245 282 7,000 -1,260 Descending Chicago Center
10:24PM 42.1378 -85.1444 241° Southwest 242 278 5,700 -1,320 Descending Chicago Center
10:25PM 42.1050 -85.2278 242° Southwest 249 287 4,400 -1,320 Descending Chicago Center
10:26PM 42.0553 -85.3164 233° Southwest 256 295 3,100 -840 Descending Chicago Center
10:27PM 42.0450 -85.4017 261° West 242 278 2,800 -180 Descending Chicago Center
10:28PM 42.0350 -85.4756 260° West 220 253 2,800  Level Chicago Center
10:29PM 42.0775 -85.5236 320° Northwest 226 260 2,800  Level Chicago Center
10:30PM 42.1333 -85.5269 357° North 205 236 2,800  Level Chicago Center